sensor_id;sensor_type;location;lat;lon;timestamp;pressure;altitude;pressure_sealevel;temperature;humidity
46448;BME280;32145;50.390;30.778;2024-01-30T00:02:00;102454.88;;;-4.30;79.35
46448;BME280;32145;50.390;30.778;2024-01-30T00:04:55;102462.69;;;-4.27;78.84
46448;BME280;32145;50.390;30.778;2024-01-30T00:07:50;102458.16;;;-4.25;79.48
46448;BME280;32145;50.390;30.778;2024-01-30T00:10:44;102460.66;;;-4.22;79.29
46448;BME280;32145;50.390;30.778;2024-01-30T00:13:38;102458.88;;;-4.21;79.48
46448;BME280;32145;50.390;30.778;2024-01-30T00:16:33;102449.91;;;-4.19;79.73
46448;BME280;32145;50.390;30.778;2024-01-30T00:19:27;102455.91;;;-4.15;79.37
46448;BME280;32145;50.390;30.778;2024-01-30T00:22:23;102450.56;;;-4.14;79.38
46448;BME280;32145;50.390;30.778;2024-01-30T00:25:17;102449.63;;;-4.12;79.34
46448;BME280;32145;50.390;30.778;2024-01-30T00:28:11;102449.41;;;-4.08;79.16
46448;BME280;32145;50.390;30.778;2024-01-30T00:31:06;102444.88;;;-4.06;79.02
46448;BME280;32145;50.390;30.778;2024-01-30T00:34:00;102448.31;;;-4.04;79.16
46448;BME280;32145;50.390;30.778;2024-01-30T00:36:55;102438.59;;;-4.03;79.23
46448;BME280;32145;50.390;30.778;2024-01-30T00:39:51;102441.13;;;-4.02;78.93
46448;BME280;32145;50.390;30.778;2024-01-30T00:42:45;102435.00;;;-4.02;79.33
46448;BME280;32145;50.390;30.778;2024-01-30T00:45:39;102435.00;;;-4.02;79.33
46448;BME280;32145;50.390;30.778;2024-01-30T00:48:33;102427.88;;;-4.02;79.47
46448;BME280;32145;50.390;30.778;2024-01-30T00:51:28;102413.81;;;-4.02;79.57
46448;BME280;32145;50.390;30.778;2024-01-30T00:54:22;102409.34;;;-4.02;79.20
46448;BME280;32145;50.390;30.778;2024-01-30T00:57:18;102411.91;;;-4.00;79.31
46448;BME280;32145;50.390;30.778;2024-01-30T01:00:13;102409.19;;;-3.98;79.04
46448;BME280;32145;50.390;30.778;2024-01-30T01:03:08;102403.13;;;-4.01;79.17
46448;BME280;32145;50.390;30.778;2024-01-30T01:06:02;102402.19;;;-3.99;78.87
46448;BME280;32145;50.390;30.778;2024-01-30T01:08:57;102411.84;;;-3.98;79.09
46448;BME280;32145;50.390;30.778;2024-01-30T01:11:51;102403.91;;;-3.98;78.64
46448;BME280;32145;50.390;30.778;2024-01-30T01:14:47;102401.09;;;-3.95;79.24
46448;BME280;32145;50.390;30.778;2024-01-30T01:17:41;102397.50;;;-3.94;79.20
46448;BME280;32145;50.390;30.778;2024-01-30T01:20:35;102386.84;;;-3.93;78.97
46448;BME280;32145;50.390;30.778;2024-01-30T01:23:29;102375.28;;;-3.92;78.94
46448;BME280;32145;50.390;30.778;2024-01-30T01:26:26;102369.97;;;-3.92;78.95
46448;BME280;32145;50.390;30.778;2024-01-30T01:29:22;102357.59;;;-3.91;78.91
46448;BME280;32145;50.390;30.778;2024-01-30T01:32:20;102351.22;;;-3.87;78.71
46448;BME280;32145;50.390;30.778;2024-01-30T01:35:16;102343.19;;;-3.85;78.60
46448;BME280;32145;50.390;30.778;2024-01-30T01:38:13;102338.56;;;-3.82;78.74
46448;BME280;32145;50.390;30.778;2024-01-30T01:41:09;102342.09;;;-3.81;78.58
46448;BME280;32145;50.390;30.778;2024-01-30T01:44:05;102330.53;;;-3.80;78.50
46448;BME280;32145;50.390;30.778;2024-01-30T01:47:02;102326.19;;;-3.81;78.13
46448;BME280;32145;50.390;30.778;2024-01-30T01:50:00;102328.75;;;-3.80;78.28
46448;BME280;32145;50.390;30.778;2024-01-30T01:52:56;102326.88;;;-3.78;78.49
46448;BME280;32145;50.390;30.778;2024-01-30T01:55:54;102319.03;;;-3.79;78.26
46448;BME280;32145;50.390;30.778;2024-01-30T01:58:51;102320.00;;;-3.82;78.28
46448;BME280;32145;50.390;30.778;2024-01-30T02:01:51;102312.94;;;-3.81;77.96
46448;BME280;32145;50.390;30.778;2024-01-30T02:04:48;102304.13;;;-3.82;78.20
46448;BME280;32145;50.390;30.778;2024-01-30T02:07:46;102304.13;;;-3.82;77.82
46448;BME280;32145;50.390;30.778;2024-01-30T02:10:42;102303.28;;;-3.82;78.19
46448;BME280;32145;50.390;30.778;2024-01-30T02:13:39;102306.75;;;-3.82;77.98
46448;BME280;32145;50.390;30.778;2024-01-30T02:16:37;102308.56;;;-3.82;78.24
46448;BME280;32145;50.390;30.778;2024-01-30T02:19:33;102311.22;;;-3.82;78.21
46448;BME280;32145;50.390;30.778;2024-01-30T02:22:29;102307.03;;;-3.86;78.17
46448;BME280;32145;50.390;30.778;2024-01-30T02:25:30;102309.75;;;-3.88;78.05
46448;BME280;32145;50.390;30.778;2024-01-30T02:28:24;102315.19;;;-3.91;78.03
46448;BME280;32145;50.390;30.778;2024-01-30T02:31:18;102314.31;;;-3.92;78.06
46448;BME280;32145;50.390;30.778;2024-01-30T02:34:13;102315.34;;;-3.94;77.79
46448;BME280;32145;50.390;30.778;2024-01-30T02:37:09;102312.00;;;-3.98;78.02
46448;BME280;32145;50.390;30.778;2024-01-30T02:40:08;102311.28;;;-4.02;77.61
46448;BME280;32145;50.390;30.778;2024-01-30T02:43:04;102304.44;;;-4.06;77.78
46448;BME280;32145;50.390;30.778;2024-01-30T02:46:00;102309.09;;;-4.11;78.26
46448;BME280;32145;50.390;30.778;2024-01-30T02:48:57;102304.81;;;-4.14;77.82
46448;BME280;32145;50.390;30.778;2024-01-30T02:51:53;102308.63;;;-4.19;77.81
46448;BME280;32145;50.390;30.778;2024-01-30T02:54:48;102312.31;;;-4.22;78.28
46448;BME280;32145;50.390;30.778;2024-01-30T02:57:44;102304.50;;;-4.25;78.08
46448;BME280;32145;50.390;30.778;2024-01-30T03:00:40;102305.59;;;-4.29;78.21
46448;BME280;32145;50.390;30.778;2024-01-30T03:03:34;102302.25;;;-4.33;78.49
46448;BME280;32145;50.390;30.778;2024-01-30T03:06:29;102299.75;;;-4.36;78.33
46448;BME280;32145;50.390;30.778;2024-01-30T03:09:25;102300.44;;;-4.32;78.18
46448;BME280;32145;50.390;30.778;2024-01-30T03:12:19;102302.38;;;-4.36;78.62
46448;BME280;32145;50.390;30.778;2024-01-30T03:15:15;102300.81;;;-4.40;78.34
46448;BME280;32145;50.390;30.778;2024-01-30T03:18:09;102300.16;;;-4.45;78.27
46448;BME280;32145;50.390;30.778;2024-01-30T03:21:04;102296.75;;;-4.47;78.50
46448;BME280;32145;50.390;30.778;2024-01-30T03:24:00;102294.19;;;-4.49;78.55
46448;BME280;32145;50.390;30.778;2024-01-30T03:26:56;102293.31;;;-4.49;78.43
46448;BME280;32145;50.390;30.778;2024-01-30T03:29:51;102290.78;;;-4.51;78.79
46448;BME280;32145;50.390;30.778;2024-01-30T03:32:47;102301.56;;;-4.56;78.58
46448;BME280;32145;50.390;30.778;2024-01-30T03:35:43;102294.84;;;-4.63;78.73
46448;BME280;32145;50.390;30.778;2024-01-30T03:38:39;102292.34;;;-4.66;78.98
46448;BME280;32145;50.390;30.778;2024-01-30T03:41:36;102298.09;;;-4.75;78.55
46448;BME280;32145;50.390;30.778;2024-01-30T03:44:33;102287.94;;;-4.85;78.62
46448;BME280;32145;50.390;30.778;2024-01-30T03:47:29;102288.38;;;-4.94;78.41
46448;BME280;32145;50.390;30.778;2024-01-30T03:50:27;102294.09;;;-5.03;78.44
46448;BME280;32145;50.390;30.778;2024-01-30T03:53:23;102292.53;;;-5.08;78.72
46448;BME280;32145;50.390;30.778;2024-01-30T03:56:19;102284.78;;;-5.12;78.58
46448;BME280;32145;50.390;30.778;2024-01-30T03:59:16;102282.34;;;-5.17;78.85
46448;BME280;32145;50.390;30.778;2024-01-30T04:02:12;102287.00;;;-5.22;78.67
46448;BME280;32145;50.390;30.778;2024-01-30T04:05:08;102284.50;;;-5.25;78.76
46448;BME280;32145;50.390;30.778;2024-01-30T04:08:05;102274.91;;;-5.28;79.15
46448;BME280;32145;50.390;30.778;2024-01-30T04:11:03;102272.34;;;-5.30;78.97
46448;BME280;32145;50.390;30.778;2024-01-30T04:13:57;102268.91;;;-5.32;79.21
46448;BME280;32145;50.390;30.778;2024-01-30T04:16:54;102269.84;;;-5.33;79.54
46448;BME280;32145;50.390;30.778;2024-01-30T04:19:50;102264.63;;;-5.34;79.52
46448;BME280;32145;50.390;30.778;2024-01-30T04:22:47;102261.25;;;-5.38;79.04
46448;BME280;32145;50.390;30.778;2024-01-30T04:25:45;102261.13;;;-5.35;79.27
46448;BME280;32145;50.390;30.778;2024-01-30T04:28:41;102263.34;;;-5.25;79.76
46448;BME280;32145;50.390;30.778;2024-01-30T04:31:37;102272.06;;;-5.23;79.87
46448;BME280;32145;50.390;30.778;2024-01-30T04:34:34;102264.28;;;-5.26;79.88
46448;BME280;32145;50.390;30.778;2024-01-30T04:37:30;102271.56;;;-5.32;79.73
46448;BME280;32145;50.390;30.778;2024-01-30T04:40:26;102267.03;;;-5.30;79.64
46448;BME280;32145;50.390;30.778;2024-01-30T04:43:24;102270.69;;;-5.32;79.77
46448;BME280;32145;50.390;30.778;2024-01-30T04:46:20;102264.84;;;-5.39;79.67
46448;BME280;32145;50.390;30.778;2024-01-30T04:49:15;102266.03;;;-5.46;79.64
46448;BME280;32145;50.390;30.778;2024-01-30T04:52:09;102261.03;;;-5.52;79.42
46448;BME280;32145;50.390;30.778;2024-01-30T04:55:04;102264.59;;;-5.53;79.57
46448;BME280;32145;50.390;30.778;2024-01-30T04:57:59;102259.03;;;-5.47;79.85
46448;BME280;32145;50.390;30.778;2024-01-30T05:00:54;102261.25;;;-5.38;80.29
46448;BME280;32145;50.390;30.778;2024-01-30T05:03:49;102258.41;;;-5.33;79.98
46448;BME280;32145;50.390;30.778;2024-01-30T05:06:45;102251.34;;;-5.33;80.17
46448;BME280;32145;50.390;30.778;2024-01-30T05:09:41;102241.59;;;-5.32;80.17
46448;BME280;32145;50.390;30.778;2024-01-30T05:12:35;102244.19;;;-5.31;80.20
46448;BME280;32145;50.390;30.778;2024-01-30T05:15:30;102251.97;;;-5.27;80.33
46448;BME280;32145;50.390;30.778;2024-01-30T05:18:25;102252.75;;;-5.25;80.32
46448;BME280;32145;50.390;30.778;2024-01-30T05:21:19;102249.19;;;-5.24;80.05
46448;BME280;32145;50.390;30.778;2024-01-30T05:24:14;102242.91;;;-5.22;80.59
46448;BME280;32145;50.390;30.778;2024-01-30T05:27:08;102251.69;;;-5.21;80.41
46448;BME280;32145;50.390;30.778;2024-01-30T05:30:03;102257.97;;;-5.24;80.24
46448;BME280;32145;50.390;30.778;2024-01-30T05:32:58;102250.28;;;-5.28;80.10
46448;BME280;32145;50.390;30.778;2024-01-30T05:35:53;102256.25;;;-5.25;80.40
46448;BME280;32145;50.390;30.778;2024-01-30T05:38:48;102262.19;;;-5.20;80.22
46448;BME280;32145;50.390;30.778;2024-01-30T05:41:42;102256.75;;;-5.17;80.36
46448;BME280;32145;50.390;30.778;2024-01-30T05:44:37;102260.91;;;-5.11;80.33
46448;BME280;32145;50.390;30.778;2024-01-30T05:47:31;102261.72;;;-5.09;80.38
46448;BME280;32145;50.390;30.778;2024-01-30T05:50:25;102254.63;;;-5.08;80.35
46448;BME280;32145;50.390;30.778;2024-01-30T05:53:21;102254.56;;;-5.07;80.51
46448;BME280;32145;50.390;30.778;2024-01-30T05:56:17;102264.19;;;-5.06;80.34
46448;BME280;32145;50.390;30.778;2024-01-30T05:59:13;102257.75;;;-5.00;80.59
46448;BME280;32145;50.390;30.778;2024-01-30T06:02:10;102250.47;;;-4.95;80.40
46448;BME280;32145;50.390;30.778;2024-01-30T06:05:07;102256.34;;;-4.88;80.25
46448;BME280;32145;50.390;30.778;2024-01-30T06:08:04;102259.75;;;-4.86;80.10
46448;BME280;32145;50.390;30.778;2024-01-30T06:11:02;102267.47;;;-4.81;80.29
46448;BME280;32145;50.390;30.778;2024-01-30T06:13:58;102267.28;;;-4.76;80.60
46448;BME280;32145;50.390;30.778;2024-01-30T06:16:54;102259.16;;;-4.73;80.00
46448;BME280;32145;50.390;30.778;2024-01-30T06:19:51;102260.66;;;-4.68;80.60
46448;BME280;32145;50.390;30.778;2024-01-30T06:22:49;102259.34;;;-4.59;80.15
46448;BME280;32145;50.390;30.778;2024-01-30T06:25:44;102254.53;;;-4.50;80.55
46448;BME280;32145;50.390;30.778;2024-01-30T06:28:39;102253.31;;;-4.43;79.67
46448;BME280;32145;50.390;30.778;2024-01-30T06:31:39;102262.59;;;-4.34;79.81
46448;BME280;32145;50.390;30.778;2024-01-30T06:34:34;102259.47;;;-4.25;79.84
46448;BME280;32145;50.390;30.778;2024-01-30T06:37:28;102263.59;;;-4.19;79.59
46448;BME280;32145;50.390;30.778;2024-01-30T06:40:22;102261.41;;;-4.11;79.74
46448;BME280;32145;50.390;30.778;2024-01-30T06:43:17;102255.88;;;-4.06;79.81
46448;BME280;32145;50.390;30.778;2024-01-30T06:46:13;102257.38;;;-4.01;79.70
46448;BME280;32145;50.390;30.778;2024-01-30T06:49:09;102258.78;;;-3.93;79.31
46448;BME280;32145;50.390;30.778;2024-01-30T06:52:06;102261.16;;;-3.89;79.16
46448;BME280;32145;50.390;30.778;2024-01-30T06:55:00;102258.13;;;-3.81;78.90
46448;BME280;32145;50.390;30.778;2024-01-30T06:58:18;102260.28;;;-3.71;78.83
46448;BME280;32145;50.390;30.778;2024-01-30T07:01:14;102259.13;;;-3.66;78.58
46448;BME280;32145;50.390;30.778;2024-01-30T07:04:08;102257.16;;;-3.62;78.48
46448;BME280;32145;50.390;30.778;2024-01-30T07:07:02;102248.94;;;-3.57;78.30
46448;BME280;32145;50.390;30.778;2024-01-30T07:09:59;102257.44;;;-3.51;78.34
46448;BME280;32145;50.390;30.778;2024-01-30T07:12:55;102251.81;;;-3.44;78.40
46448;BME280;32145;50.390;30.778;2024-01-30T07:15:50;102251.56;;;-3.40;78.15
46448;BME280;32145;50.390;30.778;2024-01-30T07:18:45;102244.28;;;-3.36;77.52
46448;BME280;32145;50.390;30.778;2024-01-30T07:21:39;102252.09;;;-3.33;77.56
46448;BME280;32145;50.390;30.778;2024-01-30T07:24:34;102244.56;;;-3.25;77.11
46448;BME280;32145;50.390;30.778;2024-01-30T07:27:28;102237.19;;;-3.19;77.50
46448;BME280;32145;50.390;30.778;2024-01-30T07:30:24;102243.97;;;-3.14;77.34
46448;BME280;32145;50.390;30.778;2024-01-30T07:33:19;102241.81;;;-3.07;76.55
46448;BME280;32145;50.390;30.778;2024-01-30T07:36:14;102233.53;;;-3.01;76.82
46448;BME280;32145;50.390;30.778;2024-01-30T07:39:09;102227.09;;;-2.96;76.33
46448;BME280;32145;50.390;30.778;2024-01-30T07:42:03;102218.91;;;-2.92;76.38
46448;BME280;32145;50.390;30.778;2024-01-30T07:44:58;102218.53;;;-2.86;75.71
46448;BME280;32145;50.390;30.778;2024-01-30T07:47:52;102225.28;;;-2.80;75.98
46448;BME280;32145;50.390;30.778;2024-01-30T07:50:47;102217.81;;;-2.73;75.76
46448;BME280;32145;50.390;30.778;2024-01-30T07:53:42;102217.50;;;-2.67;75.52
46448;BME280;32145;50.390;30.778;2024-01-30T07:56:38;102219.69;;;-2.59;75.12
46448;BME280;32145;50.390;30.778;2024-01-30T07:59:33;102223.69;;;-2.52;75.28
46448;BME280;32145;50.390;30.778;2024-01-30T08:02:27;102219.66;;;-2.43;74.67
46448;BME280;32145;50.390;30.778;2024-01-30T08:05:22;102213.78;;;-2.34;75.42
46448;BME280;32145;50.390;30.778;2024-01-30T08:08:16;102220.28;;;-2.23;75.09
46448;BME280;32145;50.390;30.778;2024-01-30T08:11:12;102221.53;;;-2.14;74.98
46448;BME280;32145;50.390;30.778;2024-01-30T08:14:08;102223.06;;;-2.10;74.86
46448;BME280;32145;50.390;30.778;2024-01-30T08:17:05;102225.53;;;-2.07;74.28
46448;BME280;32145;50.390;30.778;2024-01-30T08:20:01;102221.56;;;-2.00;74.40
46448;BME280;32145;50.390;30.778;2024-01-30T08:22:58;102225.56;;;-1.92;74.12
46448;BME280;32145;50.390;30.778;2024-01-30T08:25:55;102204.84;;;-1.87;73.56
46448;BME280;32145;50.390;30.778;2024-01-30T08:28:50;102207.88;;;-1.79;73.54
46448;BME280;32145;50.390;30.778;2024-01-30T08:31:45;102205.63;;;-1.71;73.24
46448;BME280;32145;50.390;30.778;2024-01-30T08:34:39;102197.81;;;-1.59;73.12
46448;BME280;32145;50.390;30.778;2024-01-30T08:37:33;102198.31;;;-1.52;73.21
46448;BME280;32145;50.390;30.778;2024-01-30T08:40:30;102191.53;;;-1.44;73.11
46448;BME280;32145;50.390;30.778;2024-01-30T08:43:24;102184.13;;;-1.38;72.59
46448;BME280;32145;50.390;30.778;2024-01-30T08:46:20;102187.53;;;-1.36;72.69
46448;BME280;32145;50.390;30.778;2024-01-30T08:49:17;102182.03;;;-1.33;72.41
46448;BME280;32145;50.390;30.778;2024-01-30T08:52:11;102182.81;;;-1.31;72.24
46448;BME280;32145;50.390;30.778;2024-01-30T08:55:06;102181.66;;;-1.27;72.14
46448;BME280;32145;50.390;30.778;2024-01-30T08:58:00;102168.88;;;-1.22;71.69
46448;BME280;32145;50.390;30.778;2024-01-30T09:00:54;102173.59;;;-1.12;71.37
46448;BME280;32145;50.390;30.778;2024-01-30T09:03:52;102165.97;;;-1.04;71.34
46448;BME280;32145;50.390;30.778;2024-01-30T09:06:47;102163.66;;;-0.96;70.82
46448;BME280;32145;50.390;30.778;2024-01-30T09:09:42;102154.13;;;-0.85;70.52
46448;BME280;32145;50.390;30.778;2024-01-30T09:12:36;102156.91;;;-0.74;70.40
46448;BME280;32145;50.390;30.778;2024-01-30T09:15:30;102142.03;;;-0.63;70.10
46448;BME280;32145;50.390;30.778;2024-01-30T09:18:25;102147.59;;;-0.54;70.10
46448;BME280;32145;50.390;30.778;2024-01-30T09:21:20;102147.06;;;-0.46;69.41
46448;BME280;32145;50.390;30.778;2024-01-30T09:24:15;102137.69;;;-0.38;68.96
46448;BME280;32145;50.390;30.778;2024-01-30T09:27:09;102137.50;;;-0.35;67.92
46448;BME280;32145;50.390;30.778;2024-01-30T09:30:05;102132.88;;;-0.33;67.68
46448;BME280;32145;50.390;30.778;2024-01-30T09:32:59;102123.81;;;-0.31;67.71
46448;BME280;32145;50.390;30.778;2024-01-30T09:35:53;102116.50;;;-0.27;66.90
46448;BME280;32145;50.390;30.778;2024-01-30T09:38:49;102114.34;;;-0.22;67.00
46448;BME280;32145;50.390;30.778;2024-01-30T09:41:45;102103.25;;;-0.16;67.02
46448;BME280;32145;50.390;30.778;2024-01-30T09:44:43;102105.59;;;-0.11;67.16
46448;BME280;32145;50.390;30.778;2024-01-30T09:47:40;102104.09;;;-0.02;67.24
46448;BME280;32145;50.390;30.778;2024-01-30T09:50:35;102097.38;;;0.05;66.88
46448;BME280;32145;50.390;30.778;2024-01-30T09:53:29;102096.19;;;0.09;66.85
46448;BME280;32145;50.390;30.778;2024-01-30T09:56:25;102098.75;;;0.11;66.36
46448;BME280;32145;50.390;30.778;2024-01-30T09:59:19;102091.25;;;0.16;66.64
46448;BME280;32145;50.390;30.778;2024-01-30T10:02:13;102082.94;;;0.21;66.32
46448;BME280;32145;50.390;30.778;2024-01-30T10:05:02;102089.75;;;0.25;65.77
46448;BME280;32145;50.390;30.778;2024-01-30T10:07:59;102077.13;;;0.27;65.86
46448;BME280;32145;50.390;30.778;2024-01-30T10:10:53;102081.06;;;0.34;65.75
46448;BME280;32145;50.390;30.778;2024-01-30T10:13:49;102067.50;;;0.37;65.47
46448;BME280;32145;50.390;30.778;2024-01-30T10:16:46;102071.75;;;0.40;65.51
46448;BME280;32145;50.390;30.778;2024-01-30T10:19:42;102074.31;;;0.42;65.41
46448;BME280;32145;50.390;30.778;2024-01-30T10:22:39;102074.72;;;0.48;65.47
46448;BME280;32145;50.390;30.778;2024-01-30T10:25:37;102080.72;;;0.52;65.09
46448;BME280;32145;50.390;30.778;2024-01-30T10:28:33;102077.78;;;0.55;65.10
46448;BME280;32145;50.390;30.778;2024-01-30T10:31:31;102071.25;;;0.59;64.94
46448;BME280;32145;50.390;30.778;2024-01-30T10:34:25;102061.84;;;0.67;65.19
46448;BME280;32145;50.390;30.778;2024-01-30T10:37:21;102070.13;;;0.75;64.89
46448;BME280;32145;50.390;30.778;2024-01-30T10:40:20;102071.59;;;0.79;64.36
46448;BME280;32145;50.390;30.778;2024-01-30T10:43:17;102074.78;;;0.84;64.57
46448;BME280;32145;50.390;30.778;2024-01-30T10:46:18;102065.34;;;0.92;63.99
46448;BME280;32145;50.390;30.778;2024-01-30T10:49:14;102066.84;;;0.96;64.16
46448;BME280;32145;50.390;30.778;2024-01-30T10:52:10;102063.78;;;1.00;64.18
46448;BME280;32145;50.390;30.778;2024-01-30T10:55:06;102060.56;;;1.08;64.22
46448;BME280;32145;50.390;30.778;2024-01-30T10:58:00;102068.84;;;1.17;64.13
46448;BME280;32145;50.390;30.778;2024-01-30T11:00:55;102059.63;;;1.21;63.52
46448;BME280;32145;50.390;30.778;2024-01-30T11:03:50;102063.25;;;1.20;62.75
46448;BME280;32145;50.390;30.778;2024-01-30T11:06:49;102063.88;;;1.23;63.01
46448;BME280;32145;50.390;30.778;2024-01-30T11:09:49;102055.72;;;1.25;62.75
46448;BME280;32145;50.390;30.778;2024-01-30T11:12:45;102040.41;;;1.27;62.48
46448;BME280;32145;50.390;30.778;2024-01-30T11:15:40;102038.97;;;1.34;62.65
46448;BME280;32145;50.390;30.778;2024-01-30T11:18:35;102028.81;;;1.39;62.37
46448;BME280;32145;50.390;30.778;2024-01-30T11:21:30;102023.69;;;1.48;62.89
46448;BME280;32145;50.390;30.778;2024-01-30T11:24:26;102029.19;;;1.58;62.57
46448;BME280;32145;50.390;30.778;2024-01-30T11:27:21;102017.38;;;1.60;61.96
46448;BME280;32145;50.390;30.778;2024-01-30T11:30:22;102010.69;;;1.66;61.51
46448;BME280;32145;50.390;30.778;2024-01-30T11:33:27;102010.47;;;1.69;60.90
46448;BME280;32145;50.390;30.778;2024-01-30T11:36:25;102003.28;;;1.70;61.11
46448;BME280;32145;50.390;30.778;2024-01-30T11:39:20;102004.03;;;1.72;60.68
46448;BME280;32145;50.390;30.778;2024-01-30T11:42:17;102005.22;;;1.79;60.63
46448;BME280;32145;50.390;30.778;2024-01-30T11:45:14;101997.16;;;1.90;60.95
46448;BME280;32145;50.390;30.778;2024-01-30T11:48:11;101991.34;;;1.97;60.21
46448;BME280;32145;50.390;30.778;2024-01-30T11:51:08;101997.16;;;2.02;59.99
46448;BME280;32145;50.390;30.778;2024-01-30T11:54:04;101995.09;;;2.05;59.79
46448;BME280;32145;50.390;30.778;2024-01-30T11:57:00;101995.94;;;2.06;59.87
46448;BME280;32145;50.390;30.778;2024-01-30T11:59:58;101999.34;;;2.08;60.19
46448;BME280;32145;50.390;30.778;2024-01-30T12:02:55;101995.56;;;2.11;59.79
46448;BME280;32145;50.390;30.778;2024-01-30T12:05:55;101995.44;;;2.12;59.73
46448;BME280;32145;50.390;30.778;2024-01-30T12:08:57;101993.97;;;2.19;59.66
46448;BME280;32145;50.390;30.778;2024-01-30T12:11:51;101992.22;;;2.30;59.46
46448;BME280;32145;50.390;30.778;2024-01-30T12:14:46;101988.06;;;2.37;58.87
46448;BME280;32145;50.390;30.778;2024-01-30T12:17:42;101988.16;;;2.47;59.03
46448;BME280;32145;50.390;30.778;2024-01-30T12:20:37;101994.94;;;2.51;59.27
46448;BME280;32145;50.390;30.778;2024-01-30T12:23:31;101992.06;;;2.43;59.16
46448;BME280;32145;50.390;30.778;2024-01-30T12:26:25;101988.59;;;2.31;59.21
46448;BME280;32145;50.390;30.778;2024-01-30T12:29:20;101986.19;;;2.16;59.09
46448;BME280;32145;50.390;30.778;2024-01-30T12:32:15;101986.09;;;2.06;59.77
46448;BME280;32145;50.390;30.778;2024-01-30T12:35:12;101986.84;;;1.97;59.62
46448;BME280;32145;50.390;30.778;2024-01-30T12:38:06;101980.16;;;1.91;59.62
46448;BME280;32145;50.390;30.778;2024-01-30T12:41:01;101981.41;;;1.87;59.74
46448;BME280;32145;50.390;30.778;2024-01-30T12:43:57;101987.81;;;1.85;59.88
46448;BME280;32145;50.390;30.778;2024-01-30T12:46:54;101988.69;;;1.85;59.94
46448;BME280;32145;50.390;30.778;2024-01-30T12:49:51;101978.22;;;1.82;60.08
46448;BME280;32145;50.390;30.778;2024-01-30T12:52:48;101981.88;;;1.81;59.97
46448;BME280;32145;50.390;30.778;2024-01-30T12:55:44;101968.75;;;1.78;59.75
46448;BME280;32145;50.390;30.778;2024-01-30T12:58:41;101975.19;;;1.75;60.03
46448;BME280;32145;50.390;30.778;2024-01-30T13:01:37;101981.16;;;1.79;60.30
46448;BME280;32145;50.390;30.778;2024-01-30T13:04:34;101971.75;;;1.85;60.49
46448;BME280;32145;50.390;30.778;2024-01-30T13:07:30;101964.81;;;1.93;60.08
46448;BME280;32145;50.390;30.778;2024-01-30T13:10:28;101960.19;;;2.07;60.03
46448;BME280;32145;50.390;30.778;2024-01-30T13:13:24;101959.44;;;2.16;59.40
46448;BME280;32145;50.390;30.778;2024-01-30T13:16:20;101957.56;;;2.28;59.58
46448;BME280;32145;50.390;30.778;2024-01-30T13:19:17;101947.78;;;2.39;59.39
46448;BME280;32145;50.390;30.778;2024-01-30T13:22:13;101947.28;;;2.45;58.81
46448;BME280;32145;50.390;30.778;2024-01-30T13:25:09;101946.75;;;2.51;58.91
46448;BME280;32145;50.390;30.778;2024-01-30T13:28:07;101946.75;;;2.51;59.02
46448;BME280;32145;50.390;30.778;2024-01-30T13:31:01;101947.88;;;2.49;58.74
46448;BME280;32145;50.390;30.778;2024-01-30T13:33:56;101939.41;;;2.32;59.47
46448;BME280;32145;50.390;30.778;2024-01-30T13:36:50;101936.56;;;2.12;59.74
46448;BME280;32145;50.390;30.778;2024-01-30T13:39:45;101941.84;;;1.91;59.87
46448;BME280;32145;50.390;30.778;2024-01-30T13:42:42;101931.41;;;1.76;60.62
46448;BME280;32145;50.390;30.778;2024-01-30T13:45:38;101941.31;;;1.64;61.03
46448;BME280;32145;50.390;30.778;2024-01-30T13:48:32;101938.88;;;1.61;61.51
46448;BME280;32145;50.390;30.778;2024-01-30T13:51:27;101941.06;;;1.56;61.65
46448;BME280;32145;50.390;30.778;2024-01-30T13:54:21;101935.38;;;1.49;61.96
46448;BME280;32145;50.390;30.778;2024-01-30T13:57:15;101933.53;;;1.38;62.02
46448;BME280;32145;50.390;30.778;2024-01-30T14:00:10;101927.94;;;1.30;62.27
46448;BME280;32145;50.390;30.778;2024-01-30T14:03:06;101936.47;;;1.24;62.36
46448;BME280;32145;50.390;30.778;2024-01-30T14:06:03;101928.69;;;1.21;62.78
46448;BME280;32145;50.390;30.778;2024-01-30T14:08:59;101927.94;;;1.19;62.92
46448;BME280;32145;50.390;30.778;2024-01-30T14:11:53;101931.81;;;1.14;63.15
46448;BME280;32145;50.390;30.778;2024-01-30T14:14:50;101927.81;;;1.09;63.13
46448;BME280;32145;50.390;30.778;2024-01-30T14:17:46;101924.88;;;1.00;63.53
46448;BME280;32145;50.390;30.778;2024-01-30T14:20:45;101921.13;;;0.92;63.80
46448;BME280;32145;50.390;30.778;2024-01-30T14:23:39;101924.63;;;0.81;63.87
46448;BME280;32145;50.390;30.778;2024-01-30T14:26:33;101919.88;;;0.73;64.12
46448;BME280;32145;50.390;30.778;2024-01-30T14:29:30;101925.91;;;0.63;64.78
46448;BME280;32145;50.390;30.778;2024-01-30T14:32:26;101919.47;;;0.55;65.00
46448;BME280;32145;50.390;30.778;2024-01-30T14:35:21;101924.44;;;0.48;65.20
46448;BME280;32145;50.390;30.778;2024-01-30T14:38:16;101927.78;;;0.38;65.28
46448;BME280;32145;50.390;30.778;2024-01-30T14:41:11;101925.59;;;0.32;65.50
46448;BME280;32145;50.390;30.778;2024-01-30T14:44:07;101922.88;;;0.21;65.73
46448;BME280;32145;50.390;30.778;2024-01-30T14:47:03;101927.06;;;0.12;65.97
46448;BME280;32145;50.390;30.778;2024-01-30T14:49:58;101930.06;;;0.07;66.29
46448;BME280;32145;50.390;30.778;2024-01-30T14:52:52;101932.34;;;0.01;66.34
46448;BME280;32145;50.390;30.778;2024-01-30T14:55:50;101935.78;;;-0.10;66.59
46448;BME280;32145;50.390;30.778;2024-01-30T14:58:46;101934.53;;;-0.18;66.72
46448;BME280;32145;50.390;30.778;2024-01-30T15:01:40;101929.19;;;-0.18;67.12
46448;BME280;32145;50.390;30.778;2024-01-30T15:04:34;101929.41;;;-0.21;67.21
46448;BME280;32145;50.390;30.778;2024-01-30T15:07:31;101929.88;;;-0.27;67.49
46448;BME280;32145;50.390;30.778;2024-01-30T15:10:27;101939.16;;;-0.33;67.43